Time,TemperatureF,DewpointF,PressureIn,WindDirection,WindDirectionDegrees,WindSpeedMPH,WindSpeedGustMPH,Humidity,HourlyPrecipIn,Conditions,Clouds,dailyrainin,SolarRadiationWatts/m^2,SoftwareType,DateUTC
2014-09-17 00:05:00,74.3,68.4,29.82,West,271,2.0,2.0,82,0.00,,,0.00,0,Wunderground v.1.15,2014-09-16 22:05:00,
2014-09-17 00:10:00,74.3,68.8,29.82,West,280,2.0,2.0,83,0.00,,,0.00,0,Wunderground v.1.15,2014-09-16 22:10:00,
2014-09-17 00:20:00,74.7,69.2,29.82,WSW,254,3.0,3.0,83,0.00,,,0.00,0,Wunderground v.1.15,2014-09-16 22:20:00,
2014-09-17 00:25:00,74.7,69.2,29.81,WSW,253,2.0,2.0,83,0.00,,,0.00,0,Wunderground v.1.15,2014-09-16 22:25:00,
2014-09-17 00:35:00,74.8,69.3,29.80,WSW,253,1.0,1.0,83,0.00,,,0.00,0,Wunderground v.1.15,2014-09-16 22:35:00,
2014-09-17 00:45:00,74.8,69.3,29.80,WSW,254,1.0,2.0,83,0.00,,,0.00,0,Wunderground v.1.15,2014-09-16 22:45:00,
2014-09-17 00:51:00,74.8,68.9,29.80,WSW,257,2.0,2.0,82,0.00,,,0.00,0,Wunderground v.1.15,2014-09-16 22:51:00,
2014-09-17 01:05:00,74.8,68.9,29.80,SSW,195,1.0,3.0,82,0.00,,,0.00,0,Wunderground v.1.15,2014-09-16 23:05:00,
2014-09-17 01:15:00,74.8,68.9,29.80,West,259,1.0,1.0,82,0.00,,,0.00,0,Wunderground v.1.15,2014-09-16 23:15:00,
2014-09-17 01:25:00,74.8,68.9,29.81,WSW,240,2.0,2.0,82,0.00,,,0.00,0,Wunderground v.1.15,2014-09-16 23:25:00,
2014-09-17 01:36:00,74.7,68.8,29.80,WSW,245,2.0,2.0,82,0.00,,,0.00,0,Wunderground v.1.15,2014-09-16 23:36:00,
2014-09-17 01:45:00,74.8,68.6,29.80,West,269,2.0,4.0,81,0.00,,,0.00,0,Wunderground v.1.15,2014-09-16 23:45:00,
2014-09-17 01:56:00,74.9,68.7,29.79,West,279,3.0,3.0,81,0.00,,,0.00,0,Wunderground v.1.15,2014-09-16 23:56:00,
2014-09-17 02:05:00,74.9,68.3,29.79,WNW,284,2.0,2.0,80,0.00,,,0.00,0,Wunderground v.1.15,2014-09-17 00:05:00,
2014-09-17 02:10:00,74.9,68.3,29.78,WNW,284,2.0,2.0,80,0.00,,,0.00,0,Wunderground v.1.15,2014-09-17 00:10:00,
2014-09-17 02:20:00,74.9,68.3,29.77,WNW,287,2.0,3.0,80,0.00,,,0.00,0,Wunderground v.1.15,2014-09-17 00:20:00,
2014-09-17 02:30:00,74.8,67.8,29.77,WNW,286,2.0,2.0,79,0.00,,,0.00,0,Wunderground v.1.15,2014-09-17 00:30:00,
2014-09-17 02:40:00,74.5,67.2,29.76,WNW,295,3.0,3.0,78,0.00,,,0.00,0,Wunderground v.1.15,2014-09-17 00:40:00,
2014-09-17 02:45:00,74.4,66.7,29.76,WNW,294,3.0,3.0,77,0.00,,,0.00,0,Wunderground v.1.15,2014-09-17 00:45:00,
2014-09-17 02:56:00,74.1,65.7,29.77,WNW,288,1.0,3.0,75,0.00,,,0.00,0,Wunderground v.1.15,2014-09-17 00:56:00,
2014-09-17 03:05:00,73.8,64.6,29.76,WSW,244,1.0,3.0,73,0.00,,,0.00,0,Wunderground v.1.15,2014-09-17 01:05:00,
2014-09-17 03:15:00,73.7,63.7,29.75,WNW,297,2.0,3.0,71,0.00,,,0.00,0,Wunderground v.1.15,2014-09-17 01:15:00,
2014-09-17 03:25:00,73.8,63.0,29.76,WNW,290,2.0,2.0,69,0.00,,,0.00,0,Wunderground v.1.15,2014-09-17 01:25:00,
2014-09-17 03:31:00,73.8,63.0,29.76,WNW,290,1.0,3.0,69,0.00,,,0.00,0,Wunderground v.1.15,2014-09-17 01:31:00,
2014-09-17 03:40:00,73.8,63.0,29.75,WNW,293,2.0,4.0,69,0.00,,,0.00,0,Wunderground v.1.15,2014-09-17 01:40:00,
2014-09-17 03:45:00,73.9,63.5,29.75,WNW,294,2.0,2.0,70,0.00,,,0.00,0,Wunderground v.1.15,2014-09-17 01:45:00,
2014-09-17 03:55:00,74.0,63.6,29.74,WNW,294,2.0,2.0,70,0.00,,,0.00,0,Wunderground v.1.15,2014-09-17 01:55:00,
2014-09-17 04:10:00,74.0,63.6,29.74,WNW,290,2.0,2.0,70,0.00,,,0.00,0,Wunderground v.1.15,2014-09-17 02:10:00,
2014-09-17 04:16:00,74.0,63.6,29.73,WNW,290,0.0,2.0,70,0.00,,,0.00,0,Wunderground v.1.15,2014-09-17 02:16:00,
2014-09-17 04:25:00,73.9,63.9,29.73,WNW,290,1.0,2.0,71,0.00,,,0.00,0,Wunderground v.1.15,2014-09-17 02:25:00,
2014-09-17 04:30:00,73.9,64.3,29.73,WNW,290,2.0,2.0,72,0.00,,,0.00,0,Wunderground v.1.15,2014-09-17 02:30:00,
2014-09-17 04:35:00,73.8,64.2,29.73,WNW,290,3.0,4.0,72,0.00,,,0.00,0,Wunderground v.1.15,2014-09-17 02:35:00,
2014-09-17 04:45:00,73.8,64.6,29.72,WNW,295,2.0,3.0,73,0.00,,,0.00,0,Wunderground v.1.15,2014-09-17 02:45:00,
2014-09-17 04:56:00,73.7,64.9,29.72,WNW,295,1.0,2.0,74,0.00,,,0.00,0,Wunderground v.1.15,2014-09-17 02:56:00,
2014-09-17 05:05:00,73.7,65.3,29.72,West,279,3.0,4.0,75,0.00,,,0.00,0,Wunderground v.1.15,2014-09-17 03:05:00,
2014-09-17 05:11:00,73.6,65.2,29.72,WNW,289,3.0,4.0,75,0.00,,,0.00,0,Wunderground v.1.15,2014-09-17 03:11:00,
2014-09-17 05:21:00,73.3,64.9,29.72,NW,306,3.0,3.0,75,0.00,,,0.00,0,Wunderground v.1.15,2014-09-17 03:21:00,
2014-09-17 05:35:00,73.1,64.7,29.72,WNW,290,3.0,3.0,75,0.00,,,0.00,0,Wunderground v.1.15,2014-09-17 03:35:00,
2014-09-17 05:45:00,73.0,64.6,29.72,WNW,290,0.0,0.0,75,0.00,,,0.00,0,Wunderground v.1.15,2014-09-17 03:45:00,
2014-09-17 05:55:00,72.8,64.4,29.72,WNW,290,1.0,1.0,75,0.00,,,0.00,0,Wunderground v.1.15,2014-09-17 03:55:00,
2014-09-17 06:10:00,72.6,64.2,29.72,WNW,290,1.0,1.0,75,0.00,,,0.00,0,Wunderground v.1.15,2014-09-17 04:10:00,
2014-09-17 06:20:00,72.6,64.6,29.71,WNW,290,0.0,0.0,76,0.00,,,0.00,0,Wunderground v.1.15,2014-09-17 04:20:00,
2014-09-17 06:30:00,72.5,64.5,29.72,WNW,290,1.0,1.0,76,0.00,,,0.00,0,Wunderground v.1.15,2014-09-17 04:30:00,
2014-09-17 06:35:00,72.4,64.4,29.72,WNW,290,1.0,3.0,76,0.00,,,0.00,0,Wunderground v.1.15,2014-09-17 04:35:00,
2014-09-17 06:46:00,72.3,64.3,29.72,WNW,290,2.0,2.0,76,0.00,,,0.00,0,Wunderground v.1.15,2014-09-17 04:46:00,